<?xml version="1.0" encoding="UTF-8" standalone="no" ?>
<gpx xmlns="http://www.topografix.com/GPX/1/1" xmlns:xsi="http://www.w3.org/2001/XMLSchema-instance" xsi:schemaLocation="http://www.topografix.com/GPX/1/1 http://www.topografix.com/GPX/1/1/gpx.xsd" version="1.1" creator="VisuGPX - https://www.visugpx.com">
  <metadata>
    <name>Lac de Guéry </name>
    <desc><![CDATA[Piste Renard Orange du lac de Guery - Auvergne
Aout 2014
]]></desc>
  </metadata>
  <trk>
    <name><![CDATA[Piste Renard Orange - Lac de Guery - Auvergne]]></name>
    <trkseg>
      <trkpt lat="45.62117" lon="2.82032">
        <ele>1323</ele>
        <time>2014-08-03T15:58:41Z</time>
      </trkpt>
      <trkpt lat="45.62109" lon="2.82033">
        <ele>1325</ele>
        <time>2014-08-03T15:58:54Z</time>
      </trkpt>
      <trkpt lat="45.62101" lon="2.82036">
        <ele>1324</ele>
        <time>2014-08-03T15:59:00Z</time>
      </trkpt>
      <trkpt lat="45.62095" lon="2.82042">
        <ele>1326</ele>
        <time>2014-08-03T15:59:07Z</time>
      </trkpt>
      <trkpt lat="45.62091" lon="2.82053">
        <ele>1326</ele>
        <time>2014-08-03T15:59:14Z</time>
      </trkpt>
      <trkpt lat="45.62084" lon="2.8206">
        <ele>1325</ele>
        <time>2014-08-03T15:59:21Z</time>
      </trkpt>
      <trkpt lat="45.62076" lon="2.82065">
        <ele>1324</ele>
        <time>2014-08-03T15:59:28Z</time>
      </trkpt>
      <trkpt lat="45.62068" lon="2.82063">
        <ele>1325</ele>
        <time>2014-08-03T15:59:38Z</time>
      </trkpt>
      <trkpt lat="45.62057" lon="2.82051">
        <ele>1323</ele>
        <time>2014-08-03T15:59:43Z</time>
      </trkpt>
      <trkpt lat="45.62051" lon="2.8206">
        <ele>1324</ele>
        <time>2014-08-03T16:00:49Z</time>
      </trkpt>
      <trkpt lat="45.62047" lon="2.8207">
        <ele>1324</ele>
        <time>2014-08-03T16:00:59Z</time>
      </trkpt>
      <trkpt lat="45.62042" lon="2.82081">
        <ele>1318</ele>
        <time>2014-08-03T16:01:07Z</time>
      </trkpt>
      <trkpt lat="45.62036" lon="2.8209">
        <ele>1320</ele>
        <time>2014-08-03T16:01:26Z</time>
      </trkpt>
      <trkpt lat="45.6203" lon="2.82098">
        <ele>1320</ele>
        <time>2014-08-03T16:01:38Z</time>
      </trkpt>
      <trkpt lat="45.62022" lon="2.82102">
        <ele>1321</ele>
        <time>2014-08-03T16:01:46Z</time>
      </trkpt>
      <trkpt lat="45.62014" lon="2.82106">
        <ele>1317</ele>
        <time>2014-08-03T16:01:56Z</time>
      </trkpt>
      <trkpt lat="45.62006" lon="2.82108">
        <ele>1316</ele>
        <time>2014-08-03T16:02:06Z</time>
      </trkpt>
      <trkpt lat="45.61998" lon="2.82109">
        <ele>1314</ele>
        <time>2014-08-03T16:02:14Z</time>
      </trkpt>
      <trkpt lat="45.6199" lon="2.82114">
        <ele>1312</ele>
        <time>2014-08-03T16:02:22Z</time>
      </trkpt>
      <trkpt lat="45.61982" lon="2.82117">
        <ele>1313</ele>
        <time>2014-08-03T16:02:29Z</time>
      </trkpt>
      <trkpt lat="45.61977" lon="2.82126">
        <ele>1316</ele>
        <time>2014-08-03T16:02:35Z</time>
      </trkpt>
      <trkpt lat="45.61968" lon="2.82126">
        <ele>1311</ele>
        <time>2014-08-03T16:03:27Z</time>
      </trkpt>
      <trkpt lat="45.61963" lon="2.82136">
        <ele>1307</ele>
        <time>2014-08-03T16:03:34Z</time>
      </trkpt>
      <trkpt lat="45.61958" lon="2.82146">
        <ele>1309</ele>
        <time>2014-08-03T16:03:43Z</time>
      </trkpt>
      <trkpt lat="45.6196" lon="2.82157">
        <ele>1309</ele>
        <time>2014-08-03T16:03:49Z</time>
      </trkpt>
      <trkpt lat="45.61961" lon="2.82169">
        <ele>1312</ele>
        <time>2014-08-03T16:03:55Z</time>
      </trkpt>
      <trkpt lat="45.6196" lon="2.82181">
        <ele>1310</ele>
        <time>2014-08-03T16:04:01Z</time>
      </trkpt>
      <trkpt lat="45.61957" lon="2.82192">
        <ele>1310</ele>
        <time>2014-08-03T16:04:12Z</time>
      </trkpt>
      <trkpt lat="45.61956" lon="2.82203">
        <ele>1313</ele>
        <time>2014-08-03T16:04:24Z</time>
      </trkpt>
      <trkpt lat="45.61949" lon="2.8221">
        <ele>1308</ele>
        <time>2014-08-03T16:04:46Z</time>
      </trkpt>
      <trkpt lat="45.61941" lon="2.82212">
        <ele>1304</ele>
        <time>2014-08-03T16:04:56Z</time>
      </trkpt>
      <trkpt lat="45.61932" lon="2.82216">
        <ele>1303</ele>
        <time>2014-08-03T16:05:09Z</time>
      </trkpt>
      <trkpt lat="45.61925" lon="2.82211">
        <ele>1306</ele>
        <time>2014-08-03T16:05:18Z</time>
      </trkpt>
      <trkpt lat="45.61916" lon="2.82211">
        <ele>1305</ele>
        <time>2014-08-03T16:05:28Z</time>
      </trkpt>
      <trkpt lat="45.6191" lon="2.82217">
        <ele>1303</ele>
        <time>2014-08-03T16:05:34Z</time>
      </trkpt>
      <trkpt lat="45.61901" lon="2.82219">
        <ele>1304</ele>
        <time>2014-08-03T16:05:41Z</time>
      </trkpt>
      <trkpt lat="45.61894" lon="2.82225">
        <ele>1301</ele>
        <time>2014-08-03T16:05:50Z</time>
      </trkpt>
      <trkpt lat="45.61886" lon="2.82223">
        <ele>1300</ele>
        <time>2014-08-03T16:05:59Z</time>
      </trkpt>
      <trkpt lat="45.61885" lon="2.82211">
        <ele>1298</ele>
        <time>2014-08-03T16:06:15Z</time>
      </trkpt>
      <trkpt lat="45.61885" lon="2.82199">
        <ele>1299</ele>
        <time>2014-08-03T16:06:40Z</time>
      </trkpt>
      <trkpt lat="45.61879" lon="2.8219">
        <ele>1303</ele>
        <time>2014-08-03T16:06:53Z</time>
      </trkpt>
      <trkpt lat="45.61877" lon="2.82179">
        <ele>1305</ele>
        <time>2014-08-03T16:07:11Z</time>
      </trkpt>
      <trkpt lat="45.61883" lon="2.82172">
        <ele>1307</ele>
        <time>2014-08-03T16:07:28Z</time>
      </trkpt>
      <trkpt lat="45.61885" lon="2.82162">
        <ele>1308</ele>
        <time>2014-08-03T16:07:41Z</time>
      </trkpt>
      <trkpt lat="45.61879" lon="2.82155">
        <ele>1310</ele>
        <time>2014-08-03T16:07:53Z</time>
      </trkpt>
      <trkpt lat="45.61871" lon="2.82151">
        <ele>1312</ele>
        <time>2014-08-03T16:07:59Z</time>
      </trkpt>
      <trkpt lat="45.61863" lon="2.82147">
        <ele>1312</ele>
        <time>2014-08-03T16:08:06Z</time>
      </trkpt>
      <trkpt lat="45.61855" lon="2.82145">
        <ele>1312</ele>
        <time>2014-08-03T16:08:14Z</time>
      </trkpt>
      <trkpt lat="45.61848" lon="2.82139">
        <ele>1315</ele>
        <time>2014-08-03T16:08:23Z</time>
      </trkpt>
      <trkpt lat="45.61841" lon="2.82136">
        <ele>1315</ele>
        <time>2014-08-03T16:08:29Z</time>
      </trkpt>
      <trkpt lat="45.61843" lon="2.82124">
        <ele>1310</ele>
        <time>2014-08-03T16:08:43Z</time>
      </trkpt>
      <trkpt lat="45.61843" lon="2.82112">
        <ele>1309</ele>
        <time>2014-08-03T16:08:51Z</time>
      </trkpt>
      <trkpt lat="45.61843" lon="2.82101">
        <ele>1302</ele>
        <time>2014-08-03T16:09:00Z</time>
      </trkpt>
      <trkpt lat="45.61844" lon="2.82088">
        <ele>1301</ele>
        <time>2014-08-03T16:09:07Z</time>
      </trkpt>
      <trkpt lat="45.61852" lon="2.82081">
        <ele>1304</ele>
        <time>2014-08-03T16:09:18Z</time>
      </trkpt>
      <trkpt lat="45.61857" lon="2.82072">
        <ele>1307</ele>
        <time>2014-08-03T16:09:24Z</time>
      </trkpt>
      <trkpt lat="45.61862" lon="2.82064">
        <ele>1307</ele>
        <time>2014-08-03T16:09:36Z</time>
      </trkpt>
      <trkpt lat="45.61866" lon="2.82054">
        <ele>1304</ele>
        <time>2014-08-03T16:09:41Z</time>
      </trkpt>
      <trkpt lat="45.61865" lon="2.82041">
        <ele>1305</ele>
        <time>2014-08-03T16:09:51Z</time>
      </trkpt>
      <trkpt lat="45.61866" lon="2.8203">
        <ele>1300</ele>
        <time>2014-08-03T16:09:56Z</time>
      </trkpt>
      <trkpt lat="45.61868" lon="2.82018">
        <ele>1301</ele>
        <time>2014-08-03T16:10:05Z</time>
      </trkpt>
      <trkpt lat="45.61868" lon="2.82005">
        <ele>1303</ele>
        <time>2014-08-03T16:10:14Z</time>
      </trkpt>
      <trkpt lat="45.61866" lon="2.81994">
        <ele>1306</ele>
        <time>2014-08-03T16:10:23Z</time>
      </trkpt>
      <trkpt lat="45.61865" lon="2.81983">
        <ele>1300</ele>
        <time>2014-08-03T16:10:32Z</time>
      </trkpt>
      <trkpt lat="45.61869" lon="2.81972">
        <ele>1306</ele>
        <time>2014-08-03T16:10:45Z</time>
      </trkpt>
      <trkpt lat="45.61871" lon="2.81961">
        <ele>1307</ele>
        <time>2014-08-03T16:10:54Z</time>
      </trkpt>
      <trkpt lat="45.61865" lon="2.8195">
        <ele>1309</ele>
        <time>2014-08-03T16:11:01Z</time>
      </trkpt>
      <trkpt lat="45.61867" lon="2.81938">
        <ele>1308</ele>
        <time>2014-08-03T16:11:07Z</time>
      </trkpt>
      <trkpt lat="45.61865" lon="2.81926">
        <ele>1307</ele>
        <time>2014-08-03T16:11:14Z</time>
      </trkpt>
      <trkpt lat="45.61865" lon="2.81913">
        <ele>1305</ele>
        <time>2014-08-03T16:11:23Z</time>
      </trkpt>
      <trkpt lat="45.61866" lon="2.81901">
        <ele>1307</ele>
        <time>2014-08-03T16:11:41Z</time>
      </trkpt>
      <trkpt lat="45.61868" lon="2.81885">
        <ele>1309</ele>
        <time>2014-08-03T16:11:46Z</time>
      </trkpt>
      <trkpt lat="45.61869" lon="2.81874">
        <ele>1314</ele>
        <time>2014-08-03T16:11:54Z</time>
      </trkpt>
      <trkpt lat="45.61877" lon="2.81868">
        <ele>1316</ele>
        <time>2014-08-03T16:12:03Z</time>
      </trkpt>
      <trkpt lat="45.61883" lon="2.81876">
        <ele>1310</ele>
        <time>2014-08-03T16:12:14Z</time>
      </trkpt>
      <trkpt lat="45.61882" lon="2.81888">
        <ele>1311</ele>
        <time>2014-08-03T16:12:29Z</time>
      </trkpt>
      <trkpt lat="45.61886" lon="2.81899">
        <ele>1311</ele>
        <time>2014-08-03T16:12:33Z</time>
      </trkpt>
      <trkpt lat="45.61888" lon="2.81911">
        <ele>1306</ele>
        <time>2014-08-03T16:12:46Z</time>
      </trkpt>
      <trkpt lat="45.61889" lon="2.81923">
        <ele>1305</ele>
        <time>2014-08-03T16:12:51Z</time>
      </trkpt>
      <trkpt lat="45.61891" lon="2.81936">
        <ele>1307</ele>
        <time>2014-08-03T16:12:56Z</time>
      </trkpt>
      <trkpt lat="45.6189" lon="2.81948">
        <ele>1303</ele>
        <time>2014-08-03T16:13:10Z</time>
      </trkpt>
      <trkpt lat="45.61894" lon="2.8196">
        <ele>1302</ele>
        <time>2014-08-03T16:13:17Z</time>
      </trkpt>
      <trkpt lat="45.619" lon="2.81968">
        <ele>1304</ele>
        <time>2014-08-03T16:13:25Z</time>
      </trkpt>
      <trkpt lat="45.61906" lon="2.81977">
        <ele>1304</ele>
        <time>2014-08-03T16:13:34Z</time>
      </trkpt>
      <trkpt lat="45.61908" lon="2.81988">
        <ele>1307</ele>
        <time>2014-08-03T16:13:43Z</time>
      </trkpt>
      <trkpt lat="45.61912" lon="2.81997">
        <ele>1310</ele>
        <time>2014-08-03T16:13:50Z</time>
      </trkpt>
      <trkpt lat="45.61915" lon="2.82008">
        <ele>1313</ele>
        <time>2014-08-03T16:13:56Z</time>
      </trkpt>
      <trkpt lat="45.61924" lon="2.8201">
        <ele>1314</ele>
        <time>2014-08-03T16:14:15Z</time>
      </trkpt>
      <trkpt lat="45.61931" lon="2.82014">
        <ele>1317</ele>
        <time>2014-08-03T16:14:24Z</time>
      </trkpt>
      <trkpt lat="45.6194" lon="2.82018">
        <ele>1319</ele>
        <time>2014-08-03T16:14:34Z</time>
      </trkpt>
      <trkpt lat="45.61948" lon="2.82022">
        <ele>1320</ele>
        <time>2014-08-03T16:14:41Z</time>
      </trkpt>
      <trkpt lat="45.61956" lon="2.82021">
        <ele>1318</ele>
        <time>2014-08-03T16:14:46Z</time>
      </trkpt>
      <trkpt lat="45.61963" lon="2.82028">
        <ele>1319</ele>
        <time>2014-08-03T16:14:53Z</time>
      </trkpt>
      <trkpt lat="45.6197" lon="2.82032">
        <ele>1323</ele>
        <time>2014-08-03T16:14:59Z</time>
      </trkpt>
      <trkpt lat="45.61978" lon="2.8203">
        <ele>1321</ele>
        <time>2014-08-03T16:15:04Z</time>
      </trkpt>
      <trkpt lat="45.61987" lon="2.82027">
        <ele>1319</ele>
        <time>2014-08-03T16:15:12Z</time>
      </trkpt>
      <trkpt lat="45.61995" lon="2.82031">
        <ele>1322</ele>
        <time>2014-08-03T16:15:18Z</time>
      </trkpt>
      <trkpt lat="45.62003" lon="2.82029">
        <ele>1324</ele>
        <time>2014-08-03T16:15:24Z</time>
      </trkpt>
      <trkpt lat="45.62011" lon="2.82031">
        <ele>1323</ele>
        <time>2014-08-03T16:15:31Z</time>
      </trkpt>
      <trkpt lat="45.62019" lon="2.82034">
        <ele>1319</ele>
        <time>2014-08-03T16:15:39Z</time>
      </trkpt>
      <trkpt lat="45.62025" lon="2.82041">
        <ele>1320</ele>
        <time>2014-08-03T16:15:46Z</time>
      </trkpt>
      <trkpt lat="45.62031" lon="2.82049">
        <ele>1320</ele>
        <time>2014-08-03T16:15:53Z</time>
      </trkpt>
      <trkpt lat="45.62039" lon="2.82051">
        <ele>1319</ele>
        <time>2014-08-03T16:16:04Z</time>
      </trkpt>
      <trkpt lat="45.62047" lon="2.82056">
        <ele>1319</ele>
        <time>2014-08-03T16:16:21Z</time>
      </trkpt>
      <trkpt lat="45.62055" lon="2.82062">
        <ele>1322</ele>
        <time>2014-08-03T16:16:27Z</time>
      </trkpt>
      <trkpt lat="45.62062" lon="2.82067">
        <ele>1323</ele>
        <time>2014-08-03T16:16:34Z</time>
      </trkpt>
      <trkpt lat="45.62071" lon="2.82067">
        <ele>1326</ele>
        <time>2014-08-03T16:16:42Z</time>
      </trkpt>
      <trkpt lat="45.62078" lon="2.82065">
        <ele>1326</ele>
        <time>2014-08-03T16:16:48Z</time>
      </trkpt>
      <trkpt lat="45.62086" lon="2.82059">
        <ele>1320</ele>
        <time>2014-08-03T16:16:54Z</time>
      </trkpt>
      <trkpt lat="45.62093" lon="2.82053">
        <ele>1319</ele>
        <time>2014-08-03T16:16:59Z</time>
      </trkpt>
      <trkpt lat="45.62099" lon="2.82044">
        <ele>1319</ele>
        <time>2014-08-03T16:17:06Z</time>
      </trkpt>
      <trkpt lat="45.62105" lon="2.82041">
        <ele>1319</ele>
        <time>2014-08-03T16:17:11Z</time>
      </trkpt>
      <trkpt lat="45.62114" lon="2.82042">
        <ele>1321</ele>
        <time>2014-08-03T16:17:16Z</time>
      </trkpt>
      <trkpt lat="45.62123" lon="2.82043">
        <ele>1318</ele>
        <time>2014-08-03T16:17:27Z</time>
      </trkpt>
      <trkpt lat="45.62131" lon="2.82049">
        <ele>1316</ele>
        <time>2014-08-03T16:17:36Z</time>
      </trkpt>
      <trkpt lat="45.62138" lon="2.82045">
        <ele>1317</ele>
        <time>2014-08-03T16:17:55Z</time>
      </trkpt>
      <trkpt lat="45.62138" lon="2.82045">
        <ele>1317</ele>
        <time>2014-08-03T16:17:56Z</time>
      </trkpt>
    </trkseg>
  </trk>
</gpx>